LJA YTWB-YBCV
Flight info
| Callsign | LJA |
|---|---|
| Flight time | N/A |
| Altitude | 26000 |
| Route | BIVAT Q303 MESED Q484 LIKTO |
| Aircraft | B60T/L-SDFGRY/C |
Departure
| Time | 2026-04-27 03:08 |
|---|---|
| Airport | Toowoomba Airport (YTWB) |
Arrival
| Time | N/A |
|---|---|
| Airport | Charleville Airport (YBCV) |
| Time | Latitude | Longitude | Altitude | Speed | Heading |
|---|---|---|---|---|---|
| 2026-04-27 02:58 | -27.54459 | 151.91945 | 2103 ft | 0 kts | 196° |
| 2026-04-27 03:03 | -27.54463 | 151.91924 | 2106 ft | 8 kts | 279° |
| 2026-04-27 03:04 | -27.54421 | 151.91893 | 2105 ft | 6 kts | 332° |
| 2026-04-27 03:04 | -27.54389 | 151.91843 | 2107 ft | 11 kts | 296° |
| 2026-04-27 03:04 | -27.54340 | 151.91732 | 2110 ft | 16 kts | 296° |
| 2026-04-27 03:04 | -27.54297 | 151.91639 | 2110 ft | 12 kts | 294° |
| 2026-04-27 03:05 | -27.54254 | 151.91543 | 2109 ft | 16 kts | 297° |
| 2026-04-27 03:05 | -27.54200 | 151.91424 | 2108 ft | 18 kts | 297° |
| 2026-04-27 03:05 | -27.54152 | 151.91316 | 2109 ft | 17 kts | 296° |
| 2026-04-27 03:05 | -27.54104 | 151.91208 | 2108 ft | 12 kts | 297° |
| 2026-04-27 03:06 | -27.54069 | 151.91185 | 2107 ft | 3 kts | 21° |
| 2026-04-27 03:06 | -27.54067 | 151.91186 | 2107 ft | 0 kts | 26° |
| 2026-04-27 03:06 | -27.54049 | 151.91196 | 2107 ft | 8 kts | 27° |
| 2026-04-27 03:07 | -27.54029 | 151.91229 | 2108 ft | 5 kts | 118° |
| 2026-04-27 03:07 | -27.54030 | 151.91230 | 2108 ft | 0 kts | 117° |
| 2026-04-27 03:07 | -27.54052 | 151.91278 | 2108 ft | 34 kts | 117° |
| 2026-04-27 03:07 | -27.54281 | 151.91782 | 2120 ft | 105 kts | 117° |
| 2026-04-27 03:08 | -27.54652 | 151.92587 | 2569 ft | 124 kts | 117° |
| 2026-04-27 03:08 | -27.55100 | 151.93491 | 3006 ft | 144 kts | 118° |
| 2026-04-27 03:08 | -27.55439 | 151.94560 | 3682 ft | 146 kts | 93° |
| 2026-04-27 03:08 | -27.55164 | 151.95638 | 4497 ft | 152 kts | 60° |
| 2026-04-27 03:09 | -27.54196 | 151.96253 | 5063 ft | 179 kts | 10° |
| 2026-04-27 03:09 | -27.52972 | 151.95895 | 5718 ft | 187 kts | 336° |
| 2026-04-27 03:09 | -27.51864 | 151.95055 | 6249 ft | 195 kts | 334° |
| 2026-04-27 03:09 | -27.50567 | 151.94794 | 6766 ft | 189 kts | 9° |
| 2026-04-27 03:10 | -27.49290 | 151.94941 | 7274 ft | 186 kts | 12° |
| 2026-04-27 03:10 | -27.47979 | 151.95098 | 7684 ft | 192 kts | 11° |
| 2026-04-27 03:10 | -27.46639 | 151.95257 | 8100 ft | 194 kts | 11° |
| 2026-04-27 03:10 | -27.45285 | 151.95418 | 8518 ft | 196 kts | 11° |
| 2026-04-27 03:11 | -27.43923 | 151.95579 | 8939 ft | 197 kts | 11° |
| 2026-04-27 03:11 | -27.42545 | 151.95596 | 9363 ft | 201 kts | 356° |
| 2026-04-27 03:11 | -27.41160 | 151.95316 | 9805 ft | 203 kts | 348° |
| 2026-04-27 03:11 | -27.39872 | 151.94634 | 10194 ft | 208 kts | 330° |
| 2026-04-27 03:12 | -27.38641 | 151.93749 | 10518 ft | 211 kts | 329° |
| 2026-04-27 03:12 | -27.37422 | 151.92844 | 10807 ft | 215 kts | 325° |
| 2026-04-27 03:12 | -27.36345 | 151.91647 | 11082 ft | 219 kts | 312° |
| 2026-04-27 03:12 | -27.35349 | 151.90337 | 11378 ft | 221 kts | 311° |
| 2026-04-27 03:13 | -27.34363 | 151.89013 | 11672 ft | 222 kts | 311° |
| 2026-04-27 03:13 | -27.33376 | 151.87678 | 11972 ft | 222 kts | 311° |
| 2026-04-27 03:13 | -27.32343 | 151.86387 | 12260 ft | 222 kts | 317° |
| 2026-04-27 03:13 | -27.31217 | 151.85201 | 12547 ft | 222 kts | 316° |
| 2026-04-27 03:14 | -27.30346 | 151.83766 | 12823 ft | 223 kts | 295° |
| 2026-04-27 03:14 | -27.29868 | 151.82107 | 13113 ft | 223 kts | 284° |
| 2026-04-27 03:14 | -27.29447 | 151.80424 | 13400 ft | 224 kts | 287° |
| 2026-04-27 03:14 | -27.28952 | 151.78761 | 13686 ft | 224 kts | 289° |
| 2026-04-27 03:15 | -27.28441 | 151.77102 | 13979 ft | 225 kts | 289° |
| 2026-04-27 03:15 | -27.27938 | 151.75419 | 14168 ft | 228 kts | 289° |
| 2026-04-27 03:15 | -27.27431 | 151.73718 | 14367 ft | 230 kts | 289° |
| 2026-04-27 03:15 | -27.26922 | 151.72009 | 14572 ft | 231 kts | 289° |
| 2026-04-27 03:16 | -27.26407 | 151.70294 | 14769 ft | 232 kts | 289° |
| 2026-04-27 03:16 | -27.25892 | 151.68576 | 14964 ft | 232 kts | 289° |
| 2026-04-27 03:16 | -27.25378 | 151.66854 | 15169 ft | 232 kts | 289° |
| 2026-04-27 03:16 | -27.24867 | 151.65155 | 15371 ft | 232 kts | 289° |
| 2026-04-27 03:17 | -27.24351 | 151.63431 | 15581 ft | 232 kts | 289° |
| 2026-04-27 03:17 | -27.23837 | 151.61715 | 15774 ft | 232 kts | 289° |
| 2026-04-27 03:17 | -27.23321 | 151.59999 | 15957 ft | 232 kts | 289° |
| 2026-04-27 03:17 | -27.22805 | 151.58283 | 16158 ft | 232 kts | 289° |
| 2026-04-27 03:18 | -27.22291 | 151.56569 | 16348 ft | 232 kts | 289° |
| 2026-04-27 03:18 | -27.21775 | 151.54853 | 16539 ft | 231 kts | 289° |
| 2026-04-27 03:18 | -27.21261 | 151.53140 | 16731 ft | 231 kts | 289° |
| 2026-04-27 03:18 | -27.20747 | 151.51433 | 16926 ft | 231 kts | 289° |
| 2026-04-27 03:19 | -27.20233 | 151.49726 | 17114 ft | 231 kts | 289° |
| 2026-04-27 03:19 | -27.19719 | 151.48020 | 17315 ft | 230 kts | 289° |
| 2026-04-27 03:19 | -27.19204 | 151.46309 | 17515 ft | 230 kts | 289° |
| 2026-04-27 03:19 | -27.18692 | 151.44605 | 17710 ft | 230 kts | 289° |
| 2026-04-27 03:20 | -27.18184 | 151.42924 | 17902 ft | 230 kts | 289° |
| 2026-04-27 03:20 | -27.17669 | 151.41220 | 18096 ft | 230 kts | 289° |
| 2026-04-27 03:20 | -27.17155 | 151.39518 | 18296 ft | 230 kts | 289° |
| 2026-04-27 03:20 | -27.16639 | 151.37809 | 18483 ft | 231 kts | 289° |
| 2026-04-27 03:21 | -27.16124 | 151.36105 | 18650 ft | 231 kts | 289° |
| 2026-04-27 03:21 | -27.15607 | 151.34396 | 18826 ft | 231 kts | 289° |
| 2026-04-27 03:21 | -27.15092 | 151.32692 | 18991 ft | 230 kts | 289° |
| 2026-04-27 03:21 | -27.14577 | 151.30989 | 19155 ft | 230 kts | 289° |
| 2026-04-27 03:22 | -27.14061 | 151.29287 | 19317 ft | 230 kts | 289° |
| 2026-04-27 03:22 | -27.13544 | 151.27583 | 19477 ft | 230 kts | 289° |
| 2026-04-27 03:22 | -27.13030 | 151.25880 | 19640 ft | 230 kts | 289° |
| 2026-04-27 03:22 | -27.12513 | 151.24177 | 19804 ft | 230 kts | 289° |
| 2026-04-27 03:23 | -27.11996 | 151.22476 | 19955 ft | 230 kts | 289° |
| 2026-04-27 03:23 | -27.11480 | 151.20775 | 20127 ft | 230 kts | 289° |
| 2026-04-27 03:23 | -27.10965 | 151.19078 | 20292 ft | 230 kts | 289° |
| 2026-04-27 03:23 | -27.10449 | 151.17383 | 20452 ft | 229 kts | 289° |
| 2026-04-27 03:24 | -27.09936 | 151.15691 | 20606 ft | 229 kts | 289° |